sensor_id;sensor_type;location;lat;lon;timestamp;P1;durP1;ratioP1;P2;durP2;ratioP2
25905;SDS011;13713;52.552;13.204;2024-03-22T00:01:13;24.88;;;16.67;;
25905;SDS011;13713;52.552;13.204;2024-03-22T00:03:39;25.65;;;16.20;;
25905;SDS011;13713;52.552;13.204;2024-03-22T00:06:05;25.45;;;16.30;;
25905;SDS011;13713;52.552;13.204;2024-03-22T00:08:30;26.48;;;17.15;;
25905;SDS011;13713;52.552;13.204;2024-03-22T00:10:56;27.23;;;18.02;;
25905;SDS011;13713;52.552;13.204;2024-03-22T00:13:22;25.67;;;16.65;;
25905;SDS011;13713;52.552;13.204;2024-03-22T00:15:48;27.60;;;17.52;;
25905;SDS011;13713;52.552;13.204;2024-03-22T00:18:13;26.35;;;16.77;;
25905;SDS011;13713;52.552;13.204;2024-03-22T00:20:40;27.75;;;18.33;;
25905;SDS011;13713;52.552;13.204;2024-03-22T00:23:05;26.15;;;16.98;;
25905;SDS011;13713;52.552;13.204;2024-03-22T00:25:31;27.38;;;16.98;;
25905;SDS011;13713;52.552;13.204;2024-03-22T00:27:57;27.20;;;17.05;;
25905;SDS011;13713;52.552;13.204;2024-03-22T00:30:23;26.15;;;16.42;;
25905;SDS011;13713;52.552;13.204;2024-03-22T00:32:49;24.58;;;16.40;;
25905;SDS011;13713;52.552;13.204;2024-03-22T00:35:14;25.40;;;17.25;;
25905;SDS011;13713;52.552;13.204;2024-03-22T00:37:40;25.73;;;17.08;;
25905;SDS011;13713;52.552;13.204;2024-03-22T00:40:06;26.90;;;16.90;;
25905;SDS011;13713;52.552;13.204;2024-03-22T00:42:32;25.55;;;16.83;;
25905;SDS011;13713;52.552;13.204;2024-03-22T00:44:58;24.90;;;16.58;;
25905;SDS011;13713;52.552;13.204;2024-03-22T00:47:24;27.48;;;17.65;;
25905;SDS011;13713;52.552;13.204;2024-03-22T00:49:50;27.95;;;17.83;;
25905;SDS011;13713;52.552;13.204;2024-03-22T00:52:16;26.48;;;16.92;;
25905;SDS011;13713;52.552;13.204;2024-03-22T00:54:41;26.08;;;17.63;;
25905;SDS011;13713;52.552;13.204;2024-03-22T00:57:08;25.13;;;16.30;;
25905;SDS011;13713;52.552;13.204;2024-03-22T00:59:34;24.80;;;16.15;;
25905;SDS011;13713;52.552;13.204;2024-03-22T01:02:00;24.70;;;15.95;;
25905;SDS011;13713;52.552;13.204;2024-03-22T01:04:25;25.58;;;16.08;;
25905;SDS011;13713;52.552;13.204;2024-03-22T01:06:51;28.15;;;17.27;;
25905;SDS011;13713;52.552;13.204;2024-03-22T01:09:17;27.35;;;16.95;;
25905;SDS011;13713;52.552;13.204;2024-03-22T01:11:44;24.90;;;16.67;;
25905;SDS011;13713;52.552;13.204;2024-03-22T01:14:10;26.67;;;17.35;;
25905;SDS011;13713;52.552;13.204;2024-03-22T01:16:36;24.48;;;16.33;;
25905;SDS011;13713;52.552;13.204;2024-03-22T01:19:02;25.17;;;15.93;;
25905;SDS011;13713;52.552;13.204;2024-03-22T01:21:27;26.48;;;16.58;;
25905;SDS011;13713;52.552;13.204;2024-03-22T01:23:53;28.15;;;17.90;;
25905;SDS011;13713;52.552;13.204;2024-03-22T01:26:19;25.10;;;17.00;;
25905;SDS011;13713;52.552;13.204;2024-03-22T01:28:46;25.25;;;16.83;;
25905;SDS011;13713;52.552;13.204;2024-03-22T01:31:11;25.45;;;16.55;;
25905;SDS011;13713;52.552;13.204;2024-03-22T01:33:37;24.42;;;15.43;;
25905;SDS011;13713;52.552;13.204;2024-03-22T01:36:03;24.85;;;17.52;;
25905;SDS011;13713;52.552;13.204;2024-03-22T01:38:30;28.15;;;17.50;;
25905;SDS011;13713;52.552;13.204;2024-03-22T01:40:56;27.65;;;16.85;;
25905;SDS011;13713;52.552;13.204;2024-03-22T01:43:22;23.80;;;15.50;;
25905;SDS011;13713;52.552;13.204;2024-03-22T01:45:48;25.67;;;16.45;;
25905;SDS011;13713;52.552;13.204;2024-03-22T01:48:14;25.33;;;16.20;;
25905;SDS011;13713;52.552;13.204;2024-03-22T01:50:40;25.48;;;16.85;;
25905;SDS011;13713;52.552;13.204;2024-03-22T01:53:08;26.98;;;17.65;;
25905;SDS011;13713;52.552;13.204;2024-03-22T01:55:34;27.27;;;17.75;;
25905;SDS011;13713;52.552;13.204;2024-03-22T01:57:59;27.13;;;17.30;;
25905;SDS011;13713;52.552;13.204;2024-03-22T02:00:25;25.30;;;16.13;;
25905;SDS011;13713;52.552;13.204;2024-03-22T02:02:51;26.65;;;16.50;;
25905;SDS011;13713;52.552;13.204;2024-03-22T02:05:17;26.98;;;17.30;;
25905;SDS011;13713;52.552;13.204;2024-03-22T02:07:46;27.45;;;17.55;;
25905;SDS011;13713;52.552;13.204;2024-03-22T02:10:13;28.27;;;18.33;;
25905;SDS011;13713;52.552;13.204;2024-03-22T02:12:39;27.85;;;17.00;;
25905;SDS011;13713;52.552;13.204;2024-03-22T02:15:06;24.67;;;16.52;;
25905;SDS011;13713;52.552;13.204;2024-03-22T02:17:33;26.60;;;16.85;;
25905;SDS011;13713;52.552;13.204;2024-03-22T02:20:00;28.20;;;17.77;;
25905;SDS011;13713;52.552;13.204;2024-03-22T02:22:26;27.65;;;17.17;;
25905;SDS011;13713;52.552;13.204;2024-03-22T02:24:52;26.48;;;17.25;;
25905;SDS011;13713;52.552;13.204;2024-03-22T02:27:19;23.85;;;16.25;;
25905;SDS011;13713;52.552;13.204;2024-03-22T02:29:45;28.20;;;17.83;;
25905;SDS011;13713;52.552;13.204;2024-03-22T02:32:10;26.02;;;17.10;;
25905;SDS011;13713;52.552;13.204;2024-03-22T02:34:36;26.52;;;16.52;;
25905;SDS011;13713;52.552;13.204;2024-03-22T02:37:02;25.30;;;16.20;;
25905;SDS011;13713;52.552;13.204;2024-03-22T02:39:28;27.08;;;17.23;;
25905;SDS011;13713;52.552;13.204;2024-03-22T02:41:54;26.80;;;16.65;;
25905;SDS011;13713;52.552;13.204;2024-03-22T02:44:20;27.65;;;17.10;;
25905;SDS011;13713;52.552;13.204;2024-03-22T02:46:46;26.77;;;16.90;;
25905;SDS011;13713;52.552;13.204;2024-03-22T02:49:12;26.95;;;17.33;;
25905;SDS011;13713;52.552;13.204;2024-03-22T02:51:38;27.27;;;17.08;;
25905;SDS011;13713;52.552;13.204;2024-03-22T02:54:04;27.60;;;17.27;;
25905;SDS011;13713;52.552;13.204;2024-03-22T02:56:30;27.10;;;16.88;;
25905;SDS011;13713;52.552;13.204;2024-03-22T02:58:56;25.73;;;16.75;;
25905;SDS011;13713;52.552;13.204;2024-03-22T03:01:22;24.98;;;16.35;;
25905;SDS011;13713;52.552;13.204;2024-03-22T03:03:48;26.33;;;16.95;;
25905;SDS011;13713;52.552;13.204;2024-03-22T03:06:13;28.60;;;17.13;;
25905;SDS011;13713;52.552;13.204;2024-03-22T03:08:40;28.70;;;16.98;;
25905;SDS011;13713;52.552;13.204;2024-03-22T03:11:06;25.95;;;16.73;;
25905;SDS011;13713;52.552;13.204;2024-03-22T03:13:32;25.70;;;16.58;;
25905;SDS011;13713;52.552;13.204;2024-03-22T03:15:58;27.25;;;16.20;;
25905;SDS011;13713;52.552;13.204;2024-03-22T03:18:23;26.58;;;16.50;;
25905;SDS011;13713;52.552;13.204;2024-03-22T03:20:49;31.10;;;18.15;;
25905;SDS011;13713;52.552;13.204;2024-03-22T03:23:15;26.63;;;17.17;;
25905;SDS011;13713;52.552;13.204;2024-03-22T03:25:41;30.17;;;18.65;;
25905;SDS011;13713;52.552;13.204;2024-03-22T03:28:07;29.35;;;18.85;;
25905;SDS011;13713;52.552;13.204;2024-03-22T03:30:33;28.48;;;17.27;;
25905;SDS011;13713;52.552;13.204;2024-03-22T03:33:01;25.40;;;16.20;;
25905;SDS011;13713;52.552;13.204;2024-03-22T03:35:27;28.02;;;17.02;;
25905;SDS011;13713;52.552;13.204;2024-03-22T03:37:54;28.25;;;17.52;;
25905;SDS011;13713;52.552;13.204;2024-03-22T03:40:20;27.10;;;16.77;;
25905;SDS011;13713;52.552;13.204;2024-03-22T03:42:47;28.67;;;17.65;;
25905;SDS011;13713;52.552;13.204;2024-03-22T03:45:12;29.27;;;18.23;;
25905;SDS011;13713;52.552;13.204;2024-03-22T03:47:38;29.92;;;17.80;;
25905;SDS011;13713;52.552;13.204;2024-03-22T03:50:04;29.02;;;17.80;;
25905;SDS011;13713;52.552;13.204;2024-03-22T03:52:30;30.40;;;18.25;;
25905;SDS011;13713;52.552;13.204;2024-03-22T03:54:56;30.83;;;17.98;;
25905;SDS011;13713;52.552;13.204;2024-03-22T03:57:22;31.30;;;18.17;;
25905;SDS011;13713;52.552;13.204;2024-03-22T03:59:48;32.42;;;18.48;;
25905;SDS011;13713;52.552;13.204;2024-03-22T04:02:13;31.08;;;18.73;;
25905;SDS011;13713;52.552;13.204;2024-03-22T04:04:39;29.25;;;18.10;;
25905;SDS011;13713;52.552;13.204;2024-03-22T04:07:05;28.00;;;17.00;;
25905;SDS011;13713;52.552;13.204;2024-03-22T04:09:31;32.25;;;18.42;;
25905;SDS011;13713;52.552;13.204;2024-03-22T04:11:57;29.00;;;18.15;;
25905;SDS011;13713;52.552;13.204;2024-03-22T04:14:24;29.50;;;17.73;;
25905;SDS011;13713;52.552;13.204;2024-03-22T04:16:51;30.02;;;18.23;;
25905;SDS011;13713;52.552;13.204;2024-03-22T04:19:16;29.42;;;18.05;;
25905;SDS011;13713;52.552;13.204;2024-03-22T04:21:42;31.55;;;18.10;;
25905;SDS011;13713;52.552;13.204;2024-03-22T04:24:08;30.60;;;18.45;;
25905;SDS011;13713;52.552;13.204;2024-03-22T04:26:34;29.17;;;17.55;;
25905;SDS011;13713;52.552;13.204;2024-03-22T04:29:00;28.98;;;18.15;;
25905;SDS011;13713;52.552;13.204;2024-03-22T04:31:25;27.50;;;16.17;;
25905;SDS011;13713;52.552;13.204;2024-03-22T04:33:51;31.58;;;18.05;;
25905;SDS011;13713;52.552;13.204;2024-03-22T04:36:17;30.60;;;18.90;;
25905;SDS011;13713;52.552;13.204;2024-03-22T04:38:43;29.30;;;18.20;;
25905;SDS011;13713;52.552;13.204;2024-03-22T04:41:09;30.17;;;18.17;;
25905;SDS011;13713;52.552;13.204;2024-03-22T04:43:34;32.47;;;19.38;;
25905;SDS011;13713;52.552;13.204;2024-03-22T04:46:00;30.25;;;18.38;;
25905;SDS011;13713;52.552;13.204;2024-03-22T04:48:26;28.75;;;17.48;;
25905;SDS011;13713;52.552;13.204;2024-03-22T04:50:52;29.77;;;17.60;;
25905;SDS011;13713;52.552;13.204;2024-03-22T04:53:21;27.40;;;17.73;;
25905;SDS011;13713;52.552;13.204;2024-03-22T04:55:47;31.40;;;18.98;;
25905;SDS011;13713;52.552;13.204;2024-03-22T05:00:48;28.65;;;17.70;;
25905;SDS011;13713;52.552;13.204;2024-03-22T05:03:20;29.60;;;17.38;;
25905;SDS011;13713;52.552;13.204;2024-03-22T05:05:46;28.50;;;18.05;;
25905;SDS011;13713;52.552;13.204;2024-03-22T05:08:12;28.40;;;18.27;;
25905;SDS011;13713;52.552;13.204;2024-03-22T05:10:38;30.13;;;17.65;;
25905;SDS011;13713;52.552;13.204;2024-03-22T05:13:04;31.17;;;18.80;;
25905;SDS011;13713;52.552;13.204;2024-03-22T05:15:29;30.02;;;17.85;;
25905;SDS011;13713;52.552;13.204;2024-03-22T05:17:56;31.58;;;18.70;;
25905;SDS011;13713;52.552;13.204;2024-03-22T05:20:23;30.23;;;17.80;;
25905;SDS011;13713;52.552;13.204;2024-03-22T05:22:48;31.17;;;19.30;;
25905;SDS011;13713;52.552;13.204;2024-03-22T05:25:14;30.33;;;18.65;;
25905;SDS011;13713;52.552;13.204;2024-03-22T05:27:40;28.00;;;17.42;;
25905;SDS011;13713;52.552;13.204;2024-03-22T05:30:07;29.23;;;17.67;;
25905;SDS011;13713;52.552;13.204;2024-03-22T05:32:55;28.02;;;16.75;;
25905;SDS011;13713;52.552;13.204;2024-03-22T05:35:21;32.28;;;19.38;;
25905;SDS011;13713;52.552;13.204;2024-03-22T05:37:46;30.50;;;18.60;;
25905;SDS011;13713;52.552;13.204;2024-03-22T05:40:13;30.13;;;17.90;;
25905;SDS011;13713;52.552;13.204;2024-03-22T05:42:39;35.38;;;19.38;;
25905;SDS011;13713;52.552;13.204;2024-03-22T05:45:05;28.80;;;17.50;;
25905;SDS011;13713;52.552;13.204;2024-03-22T05:47:31;33.22;;;19.90;;
25905;SDS011;13713;52.552;13.204;2024-03-22T05:49:57;31.58;;;18.75;;
25905;SDS011;13713;52.552;13.204;2024-03-22T05:52:23;32.47;;;20.40;;
25905;SDS011;13713;52.552;13.204;2024-03-22T05:54:49;35.50;;;19.13;;
25905;SDS011;13713;52.552;13.204;2024-03-22T05:57:16;41.95;;;22.23;;
25905;SDS011;13713;52.552;13.204;2024-03-22T05:59:42;58.90;;;21.20;;
25905;SDS011;13713;52.552;13.204;2024-03-22T06:02:08;40.72;;;21.17;;
25905;SDS011;13713;52.552;13.204;2024-03-22T06:04:34;39.65;;;21.92;;
25905;SDS011;13713;52.552;13.204;2024-03-22T06:07:00;38.72;;;20.38;;
25905;SDS011;13713;52.552;13.204;2024-03-22T06:09:28;49.42;;;26.48;;
25905;SDS011;13713;52.552;13.204;2024-03-22T06:12:11;42.05;;;25.00;;
25905;SDS011;13713;52.552;13.204;2024-03-22T06:14:38;39.50;;;23.98;;
25905;SDS011;13713;52.552;13.204;2024-03-22T06:17:05;37.08;;;23.80;;
25905;SDS011;13713;52.552;13.204;2024-03-22T06:19:31;42.08;;;24.10;;
25905;SDS011;13713;52.552;13.204;2024-03-22T06:21:57;44.38;;;23.80;;
25905;SDS011;13713;52.552;13.204;2024-03-22T06:24:23;79.85;;;50.58;;
25905;SDS011;13713;52.552;13.204;2024-03-22T06:26:49;51.92;;;30.73;;
25905;SDS011;13713;52.552;13.204;2024-03-22T06:29:15;45.33;;;26.92;;
25905;SDS011;13713;52.552;13.204;2024-03-22T06:31:43;47.72;;;25.63;;
25905;SDS011;13713;52.552;13.204;2024-03-22T06:34:09;42.85;;;25.63;;
25905;SDS011;13713;52.552;13.204;2024-03-22T06:36:35;45.83;;;27.05;;
25905;SDS011;13713;52.552;13.204;2024-03-22T06:39:01;37.58;;;24.15;;
25905;SDS011;13713;52.552;13.204;2024-03-22T06:41:32;41.35;;;22.38;;
25905;SDS011;13713;52.552;13.204;2024-03-22T06:43:59;36.70;;;21.10;;
25905;SDS011;13713;52.552;13.204;2024-03-22T06:46:25;30.50;;;19.83;;
25905;SDS011;13713;52.552;13.204;2024-03-22T06:48:51;31.73;;;18.98;;
25905;SDS011;13713;52.552;13.204;2024-03-22T06:51:18;31.40;;;18.25;;
25905;SDS011;13713;52.552;13.204;2024-03-22T06:53:44;28.98;;;17.92;;
25905;SDS011;13713;52.552;13.204;2024-03-22T06:56:11;31.40;;;16.40;;
25905;SDS011;13713;52.552;13.204;2024-03-22T06:58:37;22.83;;;14.40;;
25905;SDS011;13713;52.552;13.204;2024-03-22T07:01:06;28.17;;;12.85;;
25905;SDS011;13713;52.552;13.204;2024-03-22T07:03:32;22.42;;;12.57;;
25905;SDS011;13713;52.552;13.204;2024-03-22T07:05:58;28.63;;;13.05;;
25905;SDS011;13713;52.552;13.204;2024-03-22T07:08:24;24.40;;;12.00;;
25905;SDS011;13713;52.552;13.204;2024-03-22T07:10:50;27.92;;;16.30;;
25905;SDS011;13713;52.552;13.204;2024-03-22T07:13:18;31.30;;;20.23;;
25905;SDS011;13713;52.552;13.204;2024-03-22T07:15:44;29.65;;;17.50;;
25905;SDS011;13713;52.552;13.204;2024-03-22T07:18:11;34.13;;;18.52;;
25905;SDS011;13713;52.552;13.204;2024-03-22T07:20:37;30.45;;;17.38;;
25905;SDS011;13713;52.552;13.204;2024-03-22T07:23:03;46.38;;;18.70;;
25905;SDS011;13713;52.552;13.204;2024-03-22T07:25:29;40.47;;;19.27;;
25905;SDS011;13713;52.552;13.204;2024-03-22T07:27:55;46.40;;;20.27;;
25905;SDS011;13713;52.552;13.204;2024-03-22T07:30:21;42.28;;;20.55;;
25905;SDS011;13713;52.552;13.204;2024-03-22T07:32:47;45.55;;;22.38;;
25905;SDS011;13713;52.552;13.204;2024-03-22T07:35:14;52.67;;;22.25;;
25905;SDS011;13713;52.552;13.204;2024-03-22T07:37:39;56.97;;;26.60;;
25905;SDS011;13713;52.552;13.204;2024-03-22T07:40:06;64.32;;;29.17;;
25905;SDS011;13713;52.552;13.204;2024-03-22T07:42:32;72.10;;;31.77;;
25905;SDS011;13713;52.552;13.204;2024-03-22T07:44:58;68.18;;;29.40;;
25905;SDS011;13713;52.552;13.204;2024-03-22T07:47:24;71.63;;;31.73;;
25905;SDS011;13713;52.552;13.204;2024-03-22T07:49:50;76.75;;;33.63;;
25905;SDS011;13713;52.552;13.204;2024-03-22T07:52:16;66.63;;;32.85;;
25905;SDS011;13713;52.552;13.204;2024-03-22T07:54:42;66.80;;;35.70;;
25905;SDS011;13713;52.552;13.204;2024-03-22T07:57:08;74.68;;;34.15;;
25905;SDS011;13713;52.552;13.204;2024-03-22T07:59:36;67.68;;;33.78;;
25905;SDS011;13713;52.552;13.204;2024-03-22T08:02:02;67.15;;;33.50;;
25905;SDS011;13713;52.552;13.204;2024-03-22T08:04:28;66.65;;;33.70;;
25905;SDS011;13713;52.552;13.204;2024-03-22T08:06:54;72.60;;;35.85;;
25905;SDS011;13713;52.552;13.204;2024-03-22T08:09:20;68.45;;;32.90;;
25905;SDS011;13713;52.552;13.204;2024-03-22T08:11:47;79.10;;;35.85;;
25905;SDS011;13713;52.552;13.204;2024-03-22T08:14:13;70.63;;;33.33;;
25905;SDS011;13713;52.552;13.204;2024-03-22T08:16:42;73.32;;;36.88;;
25905;SDS011;13713;52.552;13.204;2024-03-22T08:19:07;93.18;;;46.38;;
25905;SDS011;13713;52.552;13.204;2024-03-22T08:21:33;94.78;;;49.08;;
25905;SDS011;13713;52.552;13.204;2024-03-22T08:24:00;84.93;;;40.42;;
25905;SDS011;13713;52.552;13.204;2024-03-22T08:26:28;97.45;;;43.72;;
25905;SDS011;13713;52.552;13.204;2024-03-22T08:28:54;87.25;;;42.83;;
25905;SDS011;13713;52.552;13.204;2024-03-22T08:31:19;101.18;;;50.75;;
25905;SDS011;13713;52.552;13.204;2024-03-22T08:33:51;98.60;;;51.78;;
25905;SDS011;13713;52.552;13.204;2024-03-22T08:36:17;122.88;;;60.83;;
25905;SDS011;13713;52.552;13.204;2024-03-22T08:38:43;109.60;;;60.03;;
25905;SDS011;13713;52.552;13.204;2024-03-22T08:41:08;103.22;;;53.60;;
25905;SDS011;13713;52.552;13.204;2024-03-22T08:43:34;117.47;;;57.80;;
25905;SDS011;13713;52.552;13.204;2024-03-22T08:46:00;105.05;;;55.15;;
25905;SDS011;13713;52.552;13.204;2024-03-22T08:48:26;104.63;;;53.90;;
25905;SDS011;13713;52.552;13.204;2024-03-22T08:50:52;112.55;;;54.22;;
25905;SDS011;13713;52.552;13.204;2024-03-22T08:53:17;100.65;;;51.42;;
25905;SDS011;13713;52.552;13.204;2024-03-22T08:55:47;115.50;;;52.55;;
25905;SDS011;13713;52.552;13.204;2024-03-22T08:58:14;118.68;;;54.15;;
25905;SDS011;13713;52.552;13.204;2024-03-22T09:00:44;153.43;;;67.88;;
25905;SDS011;13713;52.552;13.204;2024-03-22T09:03:10;190.75;;;79.47;;
25905;SDS011;13713;52.552;13.204;2024-03-22T09:05:36;135.98;;;58.50;;
25905;SDS011;13713;52.552;13.204;2024-03-22T09:08:02;99.93;;;47.83;;
25905;SDS011;13713;52.552;13.204;2024-03-22T09:10:29;94.57;;;43.38;;
25905;SDS011;13713;52.552;13.204;2024-03-22T09:12:55;83.50;;;37.85;;
25905;SDS011;13713;52.552;13.204;2024-03-22T09:15:21;74.20;;;37.10;;
25905;SDS011;13713;52.552;13.204;2024-03-22T09:17:47;82.05;;;37.03;;
25905;SDS011;13713;52.552;13.204;2024-03-22T09:20:13;79.03;;;36.58;;
25905;SDS011;13713;52.552;13.204;2024-03-22T09:22:40;73.40;;;35.75;;
25905;SDS011;13713;52.552;13.204;2024-03-22T09:25:06;77.85;;;36.97;;
25905;SDS011;13713;52.552;13.204;2024-03-22T09:27:32;91.45;;;37.85;;
25905;SDS011;13713;52.552;13.204;2024-03-22T09:29:58;90.32;;;42.35;;
25905;SDS011;13713;52.552;13.204;2024-03-22T09:32:26;85.43;;;42.22;;
25905;SDS011;13713;52.552;13.204;2024-03-22T09:34:52;107.28;;;47.53;;
25905;SDS011;13713;52.552;13.204;2024-03-22T09:37:18;90.82;;;47.42;;
25905;SDS011;13713;52.552;13.204;2024-03-22T09:39:44;96.43;;;45.67;;
25905;SDS011;13713;52.552;13.204;2024-03-22T09:42:13;115.40;;;51.15;;
25905;SDS011;13713;52.552;13.204;2024-03-22T09:44:49;102.45;;;47.00;;
25905;SDS011;13713;52.552;13.204;2024-03-22T09:47:16;97.85;;;44.95;;
25905;SDS011;13713;52.552;13.204;2024-03-22T09:49:48;95.05;;;46.22;;
25905;SDS011;13713;52.552;13.204;2024-03-22T09:52:15;94.40;;;46.13;;
25905;SDS011;13713;52.552;13.204;2024-03-22T09:54:44;95.43;;;44.75;;
25905;SDS011;13713;52.552;13.204;2024-03-22T09:57:14;103.00;;;47.38;;
25905;SDS011;13713;52.552;13.204;2024-03-22T09:59:47;116.10;;;54.72;;
25905;SDS011;13713;52.552;13.204;2024-03-22T10:02:16;97.25;;;50.28;;
25905;SDS011;13713;52.552;13.204;2024-03-22T10:04:43;102.68;;;54.38;;
25905;SDS011;13713;52.552;13.204;2024-03-22T10:07:08;102.68;;;49.03;;
25905;SDS011;13713;52.552;13.204;2024-03-22T10:09:35;100.35;;;47.70;;
25905;SDS011;13713;52.552;13.204;2024-03-22T10:12:02;96.03;;;47.75;;
25905;SDS011;13713;52.552;13.204;2024-03-22T10:14:29;107.10;;;47.08;;
25905;SDS011;13713;52.552;13.204;2024-03-22T10:16:56;108.40;;;51.85;;
25905;SDS011;13713;52.552;13.204;2024-03-22T10:19:22;111.95;;;51.63;;
25905;SDS011;13713;52.552;13.204;2024-03-22T10:22:01;117.47;;;53.08;;
25905;SDS011;13713;52.552;13.204;2024-03-22T10:24:28;123.53;;;54.72;;
25905;SDS011;13713;52.552;13.204;2024-03-22T10:26:55;125.20;;;58.13;;
25905;SDS011;13713;52.552;13.204;2024-03-22T10:29:21;123.07;;;56.20;;
25905;SDS011;13713;52.552;13.204;2024-03-22T10:31:48;116.53;;;54.70;;
25905;SDS011;13713;52.552;13.204;2024-03-22T10:34:16;118.97;;;54.97;;
25905;SDS011;13713;52.552;13.204;2024-03-22T10:36:45;120.13;;;53.60;;
25905;SDS011;13713;52.552;13.204;2024-03-22T10:39:12;115.43;;;51.83;;
25905;SDS011;13713;52.552;13.204;2024-03-22T10:41:42;112.85;;;52.92;;
25905;SDS011;13713;52.552;13.204;2024-03-22T10:44:09;117.32;;;56.97;;
25905;SDS011;13713;52.552;13.204;2024-03-22T10:46:35;117.95;;;53.30;;
25905;SDS011;13713;52.552;13.204;2024-03-22T10:49:01;126.72;;;57.75;;
25905;SDS011;13713;52.552;13.204;2024-03-22T10:51:29;115.53;;;53.70;;
25905;SDS011;13713;52.552;13.204;2024-03-22T10:53:56;115.68;;;52.53;;
25905;SDS011;13713;52.552;13.204;2024-03-22T10:56:24;127.55;;;65.82;;
25905;SDS011;13713;52.552;13.204;2024-03-22T10:58:51;117.10;;;56.53;;
25905;SDS011;13713;52.552;13.204;2024-03-22T11:01:25;93.28;;;49.78;;
25905;SDS011;13713;52.552;13.204;2024-03-22T11:03:51;88.13;;;42.92;;
25905;SDS011;13713;52.552;13.204;2024-03-22T11:06:30;82.35;;;41.50;;
25905;SDS011;13713;52.552;13.204;2024-03-22T11:08:58;72.60;;;38.40;;
25905;SDS011;13713;52.552;13.204;2024-03-22T11:11:28;74.50;;;37.30;;
25905;SDS011;13713;52.552;13.204;2024-03-22T11:13:56;73.47;;;39.88;;
25905;SDS011;13713;52.552;13.204;2024-03-22T11:16:22;76.03;;;40.50;;
25905;SDS011;13713;52.552;13.204;2024-03-22T11:18:48;74.80;;;39.65;;
25905;SDS011;13713;52.552;13.204;2024-03-22T11:21:14;83.85;;;39.65;;
25905;SDS011;13713;52.552;13.204;2024-03-22T11:23:40;68.22;;;35.10;;
25905;SDS011;13713;52.552;13.204;2024-03-22T11:26:10;72.97;;;35.90;;
25905;SDS011;13713;52.552;13.204;2024-03-22T11:28:37;73.65;;;34.95;;
25905;SDS011;13713;52.552;13.204;2024-03-22T11:31:07;61.80;;;32.28;;
25905;SDS011;13713;52.552;13.204;2024-03-22T11:33:33;64.10;;;31.67;;
25905;SDS011;13713;52.552;13.204;2024-03-22T11:35:59;66.88;;;30.48;;
25905;SDS011;13713;52.552;13.204;2024-03-22T11:38:29;61.10;;;32.70;;
25905;SDS011;13713;52.552;13.204;2024-03-22T11:40:57;72.10;;;37.33;;
25905;SDS011;13713;52.552;13.204;2024-03-22T11:43:25;69.38;;;37.40;;
25905;SDS011;13713;52.552;13.204;2024-03-22T11:45:53;65.07;;;34.22;;
25905;SDS011;13713;52.552;13.204;2024-03-22T11:48:20;63.05;;;33.33;;
25905;SDS011;13713;52.552;13.204;2024-03-22T11:50:48;65.63;;;31.75;;
25905;SDS011;13713;52.552;13.204;2024-03-22T11:53:15;65.30;;;32.47;;
25905;SDS011;13713;52.552;13.204;2024-03-22T11:55:42;67.57;;;32.72;;
25905;SDS011;13713;52.552;13.204;2024-03-22T11:58:09;77.22;;;35.08;;
25905;SDS011;13713;52.552;13.204;2024-03-22T12:00:38;110.65;;;60.50;;
25905;SDS011;13713;52.552;13.204;2024-03-22T12:03:04;99.03;;;47.75;;
25905;SDS011;13713;52.552;13.204;2024-03-22T12:05:31;81.95;;;42.58;;
25905;SDS011;13713;52.552;13.204;2024-03-22T12:07:57;84.50;;;42.60;;
25905;SDS011;13713;52.552;13.204;2024-03-22T12:10:23;82.32;;;39.42;;
25905;SDS011;13713;52.552;13.204;2024-03-22T12:12:49;85.13;;;39.05;;
25905;SDS011;13713;52.552;13.204;2024-03-22T12:15:14;73.50;;;36.30;;
25905;SDS011;13713;52.552;13.204;2024-03-22T12:17:40;77.95;;;38.00;;
25905;SDS011;13713;52.552;13.204;2024-03-22T12:20:08;85.28;;;38.03;;
25905;SDS011;13713;52.552;13.204;2024-03-22T12:22:34;83.70;;;37.78;;
25905;SDS011;13713;52.552;13.204;2024-03-22T12:25:01;88.38;;;36.90;;
25905;SDS011;13713;52.552;13.204;2024-03-22T12:27:29;79.97;;;35.85;;
25905;SDS011;13713;52.552;13.204;2024-03-22T12:29:55;77.53;;;35.80;;
25905;SDS011;13713;52.552;13.204;2024-03-22T12:32:21;99.80;;;41.72;;
25905;SDS011;13713;52.552;13.204;2024-03-22T12:34:47;83.40;;;38.60;;
25905;SDS011;13713;52.552;13.204;2024-03-22T12:37:13;79.90;;;40.67;;
25905;SDS011;13713;52.552;13.204;2024-03-22T12:39:39;71.20;;;37.22;;
25905;SDS011;13713;52.552;13.204;2024-03-22T12:42:05;82.38;;;40.97;;
25905;SDS011;13713;52.552;13.204;2024-03-22T12:44:31;80.55;;;39.50;;
25905;SDS011;13713;52.552;13.204;2024-03-22T12:46:57;75.80;;;37.38;;
25905;SDS011;13713;52.552;13.204;2024-03-22T12:49:23;79.80;;;37.20;;
25905;SDS011;13713;52.552;13.204;2024-03-22T12:51:48;69.97;;;36.30;;
25905;SDS011;13713;52.552;13.204;2024-03-22T12:54:14;76.75;;;36.50;;
25905;SDS011;13713;52.552;13.204;2024-03-22T12:56:43;73.38;;;36.95;;
25905;SDS011;13713;52.552;13.204;2024-03-22T12:59:10;70.15;;;35.38;;
25905;SDS011;13713;52.552;13.204;2024-03-22T13:01:36;80.38;;;37.58;;
25905;SDS011;13713;52.552;13.204;2024-03-22T13:04:03;83.82;;;38.40;;
25905;SDS011;13713;52.552;13.204;2024-03-22T13:06:29;83.18;;;41.40;;
25905;SDS011;13713;52.552;13.204;2024-03-22T13:08:55;79.13;;;40.15;;
25905;SDS011;13713;52.552;13.204;2024-03-22T13:11:21;81.88;;;39.78;;
25905;SDS011;13713;52.552;13.204;2024-03-22T13:13:47;81.00;;;37.83;;
25905;SDS011;13713;52.552;13.204;2024-03-22T13:16:12;72.93;;;38.05;;
25905;SDS011;13713;52.552;13.204;2024-03-22T13:18:40;92.35;;;41.30;;
25905;SDS011;13713;52.552;13.204;2024-03-22T13:21:07;94.82;;;44.25;;
25905;SDS011;13713;52.552;13.204;2024-03-22T13:23:33;91.22;;;46.35;;
25905;SDS011;13713;52.552;13.204;2024-03-22T13:26:03;122.68;;;58.92;;
25905;SDS011;13713;52.552;13.204;2024-03-22T13:28:29;99.83;;;47.77;;
25905;SDS011;13713;52.552;13.204;2024-03-22T13:31:02;107.55;;;49.53;;
25905;SDS011;13713;52.552;13.204;2024-03-22T13:33:31;102.85;;;49.20;;
25905;SDS011;13713;52.552;13.204;2024-03-22T13:36:00;102.05;;;48.35;;
25905;SDS011;13713;52.552;13.204;2024-03-22T13:38:26;88.32;;;45.10;;
25905;SDS011;13713;52.552;13.204;2024-03-22T13:40:54;88.90;;;46.17;;
25905;SDS011;13713;52.552;13.204;2024-03-22T13:43:21;91.88;;;44.88;;
25905;SDS011;13713;52.552;13.204;2024-03-22T13:45:47;85.85;;;42.78;;
25905;SDS011;13713;52.552;13.204;2024-03-22T13:48:19;78.78;;;41.55;;
25905;SDS011;13713;52.552;13.204;2024-03-22T13:50:48;87.28;;;43.00;;
25905;SDS011;13713;52.552;13.204;2024-03-22T13:53:13;79.28;;;40.28;;
25905;SDS011;13713;52.552;13.204;2024-03-22T13:55:40;82.40;;;40.47;;
25905;SDS011;13713;52.552;13.204;2024-03-22T13:58:08;81.40;;;39.85;;
25905;SDS011;13713;52.552;13.204;2024-03-22T14:00:33;78.65;;;40.30;;
25905;SDS011;13713;52.552;13.204;2024-03-22T14:03:01;76.88;;;39.40;;
25905;SDS011;13713;52.552;13.204;2024-03-22T14:05:27;81.60;;;40.95;;